Terminal Aerodrome Forecast
Issued by NWS Twin Cities, MN

Home | Current Version | Previous Version | Text Only | Print | Product List | Glossary On
Versions: 1 2 3 4 5 6 7 8 9 10 11 12 13 14 15 16 17 18 19 20 21 22 23 24 25 26
000
FTUS43 KMPX 281121
TAFMSP
TAF
KMSP 281121Z 2812/2918 14011KT 6SM BR OVC009
     FM281500 15012G18KT P6SM OVC012
     FM282200 14007KT P6SM OVC015
     FM290000 VRB03KT 5SM BR OVC008 PROB30 2900/2904 3SM -DZ BR
     FM290400 32008KT P6SM OVC008
     FM290800 31017G24KT P6SM OVC015=

USA.gov is the U.S. government's official web portal to all federal, state and local government web resources and services.